sensor_id;sensor_type;location;lat;lon;timestamp;P1;durP1;ratioP1;P2;durP2;ratioP2
61407;SDS011;47274;43.054;25.146;2023-01-28T00:01:19;30.27;;;13.87;;
61407;SDS011;47274;43.054;25.146;2023-01-28T00:03:49;47.70;;;14.23;;
61407;SDS011;47274;43.054;25.146;2023-01-28T00:06:16;70.30;;;19.63;;
61407;SDS011;47274;43.054;25.146;2023-01-28T00:08:47;76.17;;;22.03;;
61407;SDS011;47274;43.054;25.146;2023-01-28T00:11:13;27.50;;;14.60;;
61407;SDS011;47274;43.054;25.146;2023-01-28T00:13:39;32.50;;;14.27;;
61407;SDS011;47274;43.054;25.146;2023-01-28T00:16:07;21.73;;;11.17;;
61407;SDS011;47274;43.054;25.146;2023-01-28T00:18:33;25.30;;;13.23;;
61407;SDS011;47274;43.054;25.146;2023-01-28T00:21:01;28.70;;;12.80;;
61407;SDS011;47274;43.054;25.146;2023-01-28T00:23:29;59.73;;;16.87;;
61407;SDS011;47274;43.054;25.146;2023-01-28T00:25:58;74.60;;;16.07;;
61407;SDS011;47274;43.054;25.146;2023-01-28T00:28:25;57.17;;;14.00;;
61407;SDS011;47274;43.054;25.146;2023-01-28T00:30:53;44.17;;;13.20;;
61407;SDS011;47274;43.054;25.146;2023-01-28T00:33:21;48.67;;;12.40;;
61407;SDS011;47274;43.054;25.146;2023-01-28T00:35:47;106.20;;;17.13;;
61407;SDS011;47274;43.054;25.146;2023-01-28T00:38:26;89.73;;;14.23;;
61407;SDS011;47274;43.054;25.146;2023-01-28T00:40:52;120.97;;;16.80;;
61407;SDS011;47274;43.054;25.146;2023-01-28T00:43:18;48.23;;;13.03;;
61407;SDS011;47274;43.054;25.146;2023-01-28T00:45:44;69.20;;;14.53;;
61407;SDS011;47274;43.054;25.146;2023-01-28T00:48:10;42.80;;;11.67;;
61407;SDS011;47274;43.054;25.146;2023-01-28T00:50:37;120.43;;;15.87;;
61407;SDS011;47274;43.054;25.146;2023-01-28T00:53:04;30.63;;;10.10;;
61407;SDS011;47274;43.054;25.146;2023-01-28T00:55:30;44.20;;;10.67;;
61407;SDS011;47274;43.054;25.146;2023-01-28T00:57:55;56.80;;;13.63;;
61407;SDS011;47274;43.054;25.146;2023-01-28T01:00:21;76.53;;;11.97;;
61407;SDS011;47274;43.054;25.146;2023-01-28T01:02:51;24.67;;;9.40;;
61407;SDS011;47274;43.054;25.146;2023-01-28T01:05:17;108.50;;;16.27;;
61407;SDS011;47274;43.054;25.146;2023-01-28T01:07:43;38.30;;;10.93;;
61407;SDS011;47274;43.054;25.146;2023-01-28T01:10:11;222.53;;;20.80;;
61407;SDS011;47274;43.054;25.146;2023-01-28T01:12:39;290.73;;;24.77;;
61407;SDS011;47274;43.054;25.146;2023-01-28T01:15:06;249.40;;;21.13;;
61407;SDS011;47274;43.054;25.146;2023-01-28T01:17:35;233.20;;;20.13;;
61407;SDS011;47274;43.054;25.146;2023-01-28T01:20:06;113.90;;;16.53;;
61407;SDS011;47274;43.054;25.146;2023-01-28T01:22:36;186.10;;;19.90;;
61407;SDS011;47274;43.054;25.146;2023-01-28T01:25:03;154.73;;;21.23;;
61407;SDS011;47274;43.054;25.146;2023-01-28T01:27:30;153.20;;;18.97;;
61407;SDS011;47274;43.054;25.146;2023-01-28T01:29:57;288.60;;;26.40;;
61407;SDS011;47274;43.054;25.146;2023-01-28T01:32:23;339.27;;;29.07;;
61407;SDS011;47274;43.054;25.146;2023-01-28T01:34:53;228.50;;;25.63;;
61407;SDS011;47274;43.054;25.146;2023-01-28T01:37:19;146.50;;;16.57;;
61407;SDS011;47274;43.054;25.146;2023-01-28T01:39:45;318.37;;;29.37;;
61407;SDS011;47274;43.054;25.146;2023-01-28T01:42:11;98.03;;;15.67;;
61407;SDS011;47274;43.054;25.146;2023-01-28T01:44:51;231.93;;;20.63;;
61407;SDS011;47274;43.054;25.146;2023-01-28T01:47:32;424.47;;;32.57;;
61407;SDS011;47274;43.054;25.146;2023-01-28T01:50:18;151.30;;;18.97;;
61407;SDS011;47274;43.054;25.146;2023-01-28T01:52:52;213.53;;;24.00;;
61407;SDS011;47274;43.054;25.146;2023-01-28T01:55:22;118.47;;;18.40;;
61407;SDS011;47274;43.054;25.146;2023-01-28T01:57:50;23.83;;;10.27;;
61407;SDS011;47274;43.054;25.146;2023-01-28T02:00:22;25.42;;;10.50;;
61407;SDS011;47274;43.054;25.146;2023-01-28T02:02:48;27.27;;;12.77;;
61407;SDS011;47274;43.054;25.146;2023-01-28T02:05:17;21.00;;;10.73;;
61407;SDS011;47274;43.054;25.146;2023-01-28T02:07:46;21.03;;;9.07;;
61407;SDS011;47274;43.054;25.146;2023-01-28T02:10:16;21.57;;;10.33;;
61407;SDS011;47274;43.054;25.146;2023-01-28T02:12:43;21.37;;;10.30;;
61407;SDS011;47274;43.054;25.146;2023-01-28T02:15:15;20.13;;;9.18;;
61407;SDS011;47274;43.054;25.146;2023-01-28T02:17:44;19.00;;;8.90;;
61407;SDS011;47274;43.054;25.146;2023-01-28T02:20:16;17.03;;;7.87;;
61407;SDS011;47274;43.054;25.146;2023-01-28T02:28:31;18.90;;;8.77;;
61407;SDS011;47274;43.054;25.146;2023-01-28T02:31:12;15.90;;;7.57;;
61407;SDS011;47274;43.054;25.146;2023-01-28T02:39:22;16.43;;;7.63;;
61407;SDS011;47274;43.054;25.146;2023-01-28T02:42:06;15.68;;;7.55;;
61407;SDS011;47274;43.054;25.146;2023-01-28T02:44:38;17.10;;;7.97;;
61407;SDS011;47274;43.054;25.146;2023-01-28T02:47:10;15.33;;;7.50;;
61407;SDS011;47274;43.054;25.146;2023-01-28T02:49:55;17.50;;;8.20;;
61407;SDS011;47274;43.054;25.146;2023-01-28T02:58:09;18.17;;;8.33;;
61407;SDS011;47274;43.054;25.146;2023-01-28T03:00:57;19.77;;;9.50;;
61407;SDS011;47274;43.054;25.146;2023-01-28T03:06:32;18.20;;;8.20;;
61407;SDS011;47274;43.054;25.146;2023-01-28T03:09:06;19.70;;;8.80;;
61407;SDS011;47274;43.054;25.146;2023-01-28T03:14:46;25.17;;;10.17;;
61407;SDS011;47274;43.054;25.146;2023-01-28T03:17:42;21.43;;;9.97;;
61407;SDS011;47274;43.054;25.146;2023-01-28T03:20:34;25.33;;;10.00;;
61407;SDS011;47274;43.054;25.146;2023-01-28T03:30:00;25.30;;;10.47;;
61407;SDS011;47274;43.054;25.146;2023-01-28T03:32:50;20.83;;;9.83;;
61407;SDS011;47274;43.054;25.146;2023-01-28T03:35:36;80.40;;;13.83;;
61407;SDS011;47274;43.054;25.146;2023-01-28T03:38:22;33.73;;;11.70;;
61407;SDS011;47274;43.054;25.146;2023-01-28T03:45:49;22.47;;;10.13;;
61407;SDS011;47274;43.054;25.146;2023-01-28T03:48:18;20.93;;;9.77;;
61407;SDS011;47274;43.054;25.146;2023-01-28T03:50:45;27.50;;;12.60;;
61407;SDS011;47274;43.054;25.146;2023-01-28T03:53:13;22.90;;;10.93;;
61407;SDS011;47274;43.054;25.146;2023-01-28T03:55:45;21.70;;;10.40;;
61407;SDS011;47274;43.054;25.146;2023-01-28T03:58:12;26.40;;;11.53;;
61407;SDS011;47274;43.054;25.146;2023-01-28T04:00:40;107.17;;;16.40;;
61407;SDS011;47274;43.054;25.146;2023-01-28T04:03:08;40.93;;;11.43;;
61407;SDS011;47274;43.054;25.146;2023-01-28T04:06:01;67.17;;;17.57;;
61407;SDS011;47274;43.054;25.146;2023-01-28T04:08:49;23.00;;;11.40;;
61407;SDS011;47274;43.054;25.146;2023-01-28T04:11:29;22.37;;;10.73;;
61407;SDS011;47274;43.054;25.146;2023-01-28T04:13:56;21.03;;;9.83;;
61407;SDS011;47274;43.054;25.146;2023-01-28T04:16:23;20.03;;;9.43;;
61407;SDS011;47274;43.054;25.146;2023-01-28T04:18:50;21.83;;;10.10;;
61407;SDS011;47274;43.054;25.146;2023-01-28T04:21:16;19.77;;;8.67;;
61407;SDS011;47274;43.054;25.146;2023-01-28T04:23:43;19.97;;;9.37;;
61407;SDS011;47274;43.054;25.146;2023-01-28T04:26:11;17.43;;;7.90;;
61407;SDS011;47274;43.054;25.146;2023-01-28T04:28:37;17.40;;;8.10;;
61407;SDS011;47274;43.054;25.146;2023-01-28T04:31:04;20.77;;;9.60;;
61407;SDS011;47274;43.054;25.146;2023-01-28T04:33:49;21.13;;;10.47;;
61407;SDS011;47274;43.054;25.146;2023-01-28T04:36:35;19.20;;;9.03;;
61407;SDS011;47274;43.054;25.146;2023-01-28T04:39:26;20.40;;;9.43;;
61407;SDS011;47274;43.054;25.146;2023-01-28T04:42:14;21.33;;;10.40;;
61407;SDS011;47274;43.054;25.146;2023-01-28T04:44:58;22.67;;;11.23;;
61407;SDS011;47274;43.054;25.146;2023-01-28T04:47:37;21.57;;;10.80;;
61407;SDS011;47274;43.054;25.146;2023-01-28T04:50:18;24.93;;;12.47;;
61407;SDS011;47274;43.054;25.146;2023-01-28T04:53:04;31.97;;;17.73;;
61407;SDS011;47274;43.054;25.146;2023-01-28T04:55:46;23.67;;;11.52;;
61407;SDS011;47274;43.054;25.146;2023-01-28T04:58:12;24.80;;;12.83;;
61407;SDS011;47274;43.054;25.146;2023-01-28T05:00:43;23.60;;;11.30;;
61407;SDS011;47274;43.054;25.146;2023-01-28T05:03:10;25.67;;;13.20;;
61407;SDS011;47274;43.054;25.146;2023-01-28T05:05:36;22.23;;;10.80;;
61407;SDS011;47274;43.054;25.146;2023-01-28T05:08:16;22.37;;;10.83;;
61407;SDS011;47274;43.054;25.146;2023-01-28T05:10:44;20.80;;;10.47;;
61407;SDS011;47274;43.054;25.146;2023-01-28T05:13:10;21.03;;;10.17;;
61407;SDS011;47274;43.054;25.146;2023-01-28T05:15:37;19.80;;;9.47;;
61407;SDS011;47274;43.054;25.146;2023-01-28T05:18:02;21.40;;;10.50;;
61407;SDS011;47274;43.054;25.146;2023-01-28T05:20:34;25.53;;;11.93;;
61407;SDS011;47274;43.054;25.146;2023-01-28T05:23:01;23.60;;;11.47;;
61407;SDS011;47274;43.054;25.146;2023-01-28T05:25:38;21.37;;;10.00;;
61407;SDS011;47274;43.054;25.146;2023-01-28T05:28:04;21.00;;;10.20;;
61407;SDS011;47274;43.054;25.146;2023-01-28T05:30:31;20.50;;;10.10;;
61407;SDS011;47274;43.054;25.146;2023-01-28T05:32:57;22.03;;;10.90;;
61407;SDS011;47274;43.054;25.146;2023-01-28T05:35:23;20.40;;;10.37;;
61407;SDS011;47274;43.054;25.146;2023-01-28T05:37:50;21.30;;;10.37;;
61407;SDS011;47274;43.054;25.146;2023-01-28T05:40:17;21.33;;;10.47;;
61407;SDS011;47274;43.054;25.146;2023-01-28T05:42:43;22.70;;;10.47;;
61407;SDS011;47274;43.054;25.146;2023-01-28T05:45:22;23.17;;;10.70;;
61407;SDS011;47274;43.054;25.146;2023-01-28T05:48:04;26.47;;;13.40;;
61407;SDS011;47274;43.054;25.146;2023-01-28T05:50:55;27.97;;;15.13;;
61407;SDS011;47274;43.054;25.146;2023-01-28T05:53:31;27.70;;;14.40;;
61407;SDS011;47274;43.054;25.146;2023-01-28T05:55:58;38.83;;;22.10;;
61407;SDS011;47274;43.054;25.146;2023-01-28T05:58:26;25.37;;;14.03;;
61407;SDS011;47274;43.054;25.146;2023-01-28T06:00:55;26.10;;;13.63;;
61407;SDS011;47274;43.054;25.146;2023-01-28T06:03:27;24.10;;;12.93;;
61407;SDS011;47274;43.054;25.146;2023-01-28T06:05:54;23.40;;;11.73;;
61407;SDS011;47274;43.054;25.146;2023-01-28T06:08:20;23.27;;;11.87;;
61407;SDS011;47274;43.054;25.146;2023-01-28T06:10:46;23.67;;;12.07;;
61407;SDS011;47274;43.054;25.146;2023-01-28T06:16:24;22.70;;;11.43;;
61407;SDS011;47274;43.054;25.146;2023-01-28T06:19:09;23.97;;;11.90;;
61407;SDS011;47274;43.054;25.146;2023-01-28T06:21:35;22.33;;;11.03;;
61407;SDS011;47274;43.054;25.146;2023-01-28T06:24:00;23.17;;;11.83;;
61407;SDS011;47274;43.054;25.146;2023-01-28T06:26:28;25.47;;;14.60;;
61407;SDS011;47274;43.054;25.146;2023-01-28T06:28:55;27.50;;;17.77;;
61407;SDS011;47274;43.054;25.146;2023-01-28T06:31:21;28.47;;;17.53;;
61407;SDS011;47274;43.054;25.146;2023-01-28T06:33:47;24.90;;;14.53;;
61407;SDS011;47274;43.054;25.146;2023-01-28T06:36:13;25.57;;;14.57;;
61407;SDS011;47274;43.054;25.146;2023-01-28T06:38:39;23.83;;;12.53;;
61407;SDS011;47274;43.054;25.146;2023-01-28T06:41:06;21.37;;;11.57;;
61407;SDS011;47274;43.054;25.146;2023-01-28T06:43:32;22.27;;;12.03;;
61407;SDS011;47274;43.054;25.146;2023-01-28T06:45:59;22.70;;;11.23;;
61407;SDS011;47274;43.054;25.146;2023-01-28T06:48:27;21.30;;;11.00;;
61407;SDS011;47274;43.054;25.146;2023-01-28T06:50:54;20.83;;;10.90;;
61407;SDS011;47274;43.054;25.146;2023-01-28T06:53:20;21.43;;;11.50;;
61407;SDS011;47274;43.054;25.146;2023-01-28T06:55:46;20.77;;;10.93;;
61407;SDS011;47274;43.054;25.146;2023-01-28T06:58:13;21.77;;;11.80;;
61407;SDS011;47274;43.054;25.146;2023-01-28T07:00:40;19.67;;;10.10;;
61407;SDS011;47274;43.054;25.146;2023-01-28T07:03:06;22.13;;;11.40;;
61407;SDS011;47274;43.054;25.146;2023-01-28T07:05:32;39.63;;;27.37;;
61407;SDS011;47274;43.054;25.146;2023-01-28T07:07:58;27.27;;;16.67;;
61407;SDS011;47274;43.054;25.146;2023-01-28T07:10:26;25.47;;;15.03;;
61407;SDS011;47274;43.054;25.146;2023-01-28T07:12:53;23.70;;;12.67;;
61407;SDS011;47274;43.054;25.146;2023-01-28T07:15:18;21.87;;;11.07;;
61407;SDS011;47274;43.054;25.146;2023-01-28T07:17:46;24.40;;;12.70;;
61407;SDS011;47274;43.054;25.146;2023-01-28T07:20:12;23.73;;;12.80;;
61407;SDS011;47274;43.054;25.146;2023-01-28T07:22:40;23.00;;;11.10;;
61407;SDS011;47274;43.054;25.146;2023-01-28T07:25:08;31.40;;;16.87;;
61407;SDS011;47274;43.054;25.146;2023-01-28T07:27:35;23.93;;;13.27;;
61407;SDS011;47274;43.054;25.146;2023-01-28T07:30:03;23.73;;;13.10;;
61407;SDS011;47274;43.054;25.146;2023-01-28T07:32:29;23.77;;;12.83;;
61407;SDS011;47274;43.054;25.146;2023-01-28T07:34:55;23.97;;;13.00;;
61407;SDS011;47274;43.054;25.146;2023-01-28T07:37:21;21.17;;;10.60;;
61407;SDS011;47274;43.054;25.146;2023-01-28T07:39:47;22.83;;;11.53;;
61407;SDS011;47274;43.054;25.146;2023-01-28T07:42:13;24.40;;;13.03;;
61407;SDS011;47274;43.054;25.146;2023-01-28T07:44:48;31.55;;;17.30;;
61407;SDS011;47274;43.054;25.146;2023-01-28T07:47:14;25.43;;;13.67;;
61407;SDS011;47274;43.054;25.146;2023-01-28T07:49:41;22.63;;;12.07;;
61407;SDS011;47274;43.054;25.146;2023-01-28T07:52:07;25.07;;;13.50;;
61407;SDS011;47274;43.054;25.146;2023-01-28T07:54:34;22.27;;;11.60;;
61407;SDS011;47274;43.054;25.146;2023-01-28T07:57:06;21.43;;;11.43;;
61407;SDS011;47274;43.054;25.146;2023-01-28T07:59:36;23.27;;;12.43;;
61407;SDS011;47274;43.054;25.146;2023-01-28T08:02:02;24.13;;;14.43;;
61407;SDS011;47274;43.054;25.146;2023-01-28T08:04:30;23.23;;;12.60;;
61407;SDS011;47274;43.054;25.146;2023-01-28T08:06:56;21.73;;;11.23;;
61407;SDS011;47274;43.054;25.146;2023-01-28T08:09:22;20.97;;;10.33;;
61407;SDS011;47274;43.054;25.146;2023-01-28T08:11:49;20.57;;;9.73;;
61407;SDS011;47274;43.054;25.146;2023-01-28T08:14:15;20.87;;;10.47;;
61407;SDS011;47274;43.054;25.146;2023-01-28T08:16:41;21.17;;;11.37;;
61407;SDS011;47274;43.054;25.146;2023-01-28T08:19:09;20.60;;;10.50;;
61407;SDS011;47274;43.054;25.146;2023-01-28T08:21:35;20.33;;;9.90;;
61407;SDS011;47274;43.054;25.146;2023-01-28T08:24:02;19.73;;;8.97;;
61407;SDS011;47274;43.054;25.146;2023-01-28T08:26:31;17.33;;;8.20;;
61407;SDS011;47274;43.054;25.146;2023-01-28T08:28:57;18.80;;;8.63;;
61407;SDS011;47274;43.054;25.146;2023-01-28T08:31:23;21.27;;;10.97;;
61407;SDS011;47274;43.054;25.146;2023-01-28T08:33:49;20.07;;;11.03;;
61407;SDS011;47274;43.054;25.146;2023-01-28T08:36:15;21.03;;;10.30;;
61407;SDS011;47274;43.054;25.146;2023-01-28T08:38:42;19.70;;;9.27;;
61407;SDS011;47274;43.054;25.146;2023-01-28T08:41:09;21.00;;;9.93;;
61407;SDS011;47274;43.054;25.146;2023-01-28T08:43:35;19.57;;;8.93;;
61407;SDS011;47274;43.054;25.146;2023-01-28T08:46:07;23.13;;;11.10;;
61407;SDS011;47274;43.054;25.146;2023-01-28T08:48:34;22.83;;;11.93;;
61407;SDS011;47274;43.054;25.146;2023-01-28T08:51:05;22.13;;;10.77;;
61407;SDS011;47274;43.054;25.146;2023-01-28T08:53:31;21.37;;;11.17;;
61407;SDS011;47274;43.054;25.146;2023-01-28T08:56:00;19.80;;;9.43;;
61407;SDS011;47274;43.054;25.146;2023-01-28T08:58:26;19.63;;;9.60;;
61407;SDS011;47274;43.054;25.146;2023-01-28T09:00:53;19.17;;;9.07;;
61407;SDS011;47274;43.054;25.146;2023-01-28T09:03:19;18.13;;;8.23;;
61407;SDS011;47274;43.054;25.146;2023-01-28T09:05:47;16.80;;;7.67;;
61407;SDS011;47274;43.054;25.146;2023-01-28T09:08:14;20.80;;;11.00;;
61407;SDS011;47274;43.054;25.146;2023-01-28T09:10:41;20.53;;;10.57;;
61407;SDS011;47274;43.054;25.146;2023-01-28T09:13:10;19.83;;;9.93;;
61407;SDS011;47274;43.054;25.146;2023-01-28T09:15:44;21.70;;;11.23;;
61407;SDS011;47274;43.054;25.146;2023-01-28T09:18:10;18.77;;;9.53;;
61407;SDS011;47274;43.054;25.146;2023-01-28T09:20:36;16.23;;;7.60;;
61407;SDS011;47274;43.054;25.146;2023-01-28T09:23:03;16.33;;;7.40;;
61407;SDS011;47274;43.054;25.146;2023-01-28T09:25:29;13.60;;;6.47;;
61407;SDS011;47274;43.054;25.146;2023-01-28T09:27:56;13.63;;;6.53;;
61407;SDS011;47274;43.054;25.146;2023-01-28T09:30:22;14.43;;;7.03;;
61407;SDS011;47274;43.054;25.146;2023-01-28T09:32:50;15.13;;;7.03;;
61407;SDS011;47274;43.054;25.146;2023-01-28T09:35:17;17.53;;;8.30;;
61407;SDS011;47274;43.054;25.146;2023-01-28T09:37:44;18.33;;;8.50;;
61407;SDS011;47274;43.054;25.146;2023-01-28T09:48:09;22.33;;;11.33;;
61407;SDS011;47274;43.054;25.146;2023-01-28T09:50:57;24.57;;;12.13;;
61407;SDS011;47274;43.054;25.146;2023-01-28T09:53:27;23.47;;;13.33;;
61407;SDS011;47274;43.054;25.146;2023-01-28T09:55:59;20.33;;;10.07;;
61407;SDS011;47274;43.054;25.146;2023-01-28T09:58:32;20.70;;;10.60;;
61407;SDS011;47274;43.054;25.146;2023-01-28T10:03:44;22.20;;;11.37;;
61407;SDS011;47274;43.054;25.146;2023-01-28T10:15:09;20.07;;;10.10;;
61407;SDS011;47274;43.054;25.146;2023-01-28T10:17:42;17.27;;;8.70;;
61407;SDS011;47274;43.054;25.146;2023-01-28T10:20:22;16.37;;;7.60;;
61407;SDS011;47274;43.054;25.146;2023-01-28T10:25:40;16.20;;;7.30;;
61407;SDS011;47274;43.054;25.146;2023-01-28T10:28:13;17.80;;;7.67;;
61407;SDS011;47274;43.054;25.146;2023-01-28T10:30:45;16.17;;;7.70;;
61407;SDS011;47274;43.054;25.146;2023-01-28T10:33:28;236.03;;;64.77;;
61407;SDS011;47274;43.054;25.146;2023-01-28T10:36:00;29.07;;;10.87;;
61407;SDS011;47274;43.054;25.146;2023-01-28T10:38:26;25.20;;;9.30;;
61407;SDS011;47274;43.054;25.146;2023-01-28T10:41:02;26.53;;;11.40;;
61407;SDS011;47274;43.054;25.146;2023-01-28T10:43:30;27.07;;;12.57;;
61407;SDS011;47274;43.054;25.146;2023-01-28T10:46:34;25.40;;;13.80;;
61407;SDS011;47274;43.054;25.146;2023-01-28T10:51:44;21.03;;;9.90;;
61407;SDS011;47274;43.054;25.146;2023-01-28T10:54:26;22.83;;;10.90;;
61407;SDS011;47274;43.054;25.146;2023-01-28T10:57:02;22.90;;;10.67;;
61407;SDS011;47274;43.054;25.146;2023-01-28T10:59:38;19.57;;;8.63;;
61407;SDS011;47274;43.054;25.146;2023-01-28T11:05:05;19.60;;;8.60;;
61407;SDS011;47274;43.054;25.146;2023-01-28T11:07:46;20.55;;;10.45;;
61407;SDS011;47274;43.054;25.146;2023-01-28T11:10:22;16.97;;;7.63;;
61407;SDS011;47274;43.054;25.146;2023-01-28T11:12:54;15.57;;;7.07;;
61407;SDS011;47274;43.054;25.146;2023-01-28T11:15:25;16.80;;;7.53;;
61407;SDS011;47274;43.054;25.146;2023-01-28T11:17:59;15.47;;;8.00;;
61407;SDS011;47274;43.054;25.146;2023-01-28T11:20:35;16.17;;;7.17;;
61407;SDS011;47274;43.054;25.146;2023-01-28T11:23:18;13.00;;;6.00;;
61407;SDS011;47274;43.054;25.146;2023-01-28T11:26:14;14.23;;;7.03;;
61407;SDS011;47274;43.054;25.146;2023-01-28T11:28:43;12.70;;;6.33;;
61407;SDS011;47274;43.054;25.146;2023-01-28T11:31:12;15.10;;;6.87;;
61407;SDS011;47274;43.054;25.146;2023-01-28T11:34:03;14.67;;;7.20;;
61407;SDS011;47274;43.054;25.146;2023-01-28T11:36:30;15.20;;;7.27;;
61407;SDS011;47274;43.054;25.146;2023-01-28T11:39:15;15.00;;;7.17;;
61407;SDS011;47274;43.054;25.146;2023-01-28T11:41:46;15.77;;;7.63;;
61407;SDS011;47274;43.054;25.146;2023-01-28T11:44:25;16.50;;;7.53;;
61407;SDS011;47274;43.054;25.146;2023-01-28T11:50:01;16.50;;;6.97;;
61407;SDS011;47274;43.054;25.146;2023-01-28T12:01:56;16.93;;;7.23;;
61407;SDS011;47274;43.054;25.146;2023-01-28T12:09:58;13.37;;;6.10;;
61407;SDS011;47274;43.054;25.146;2023-01-28T12:18:15;16.97;;;8.80;;
61407;SDS011;47274;43.054;25.146;2023-01-28T12:21:05;11.10;;;5.43;;
61407;SDS011;47274;43.054;25.146;2023-01-28T12:37:51;14.37;;;6.20;;
61407;SDS011;47274;43.054;25.146;2023-01-28T12:52:02;12.37;;;6.27;;
61407;SDS011;47274;43.054;25.146;2023-01-28T12:57:45;13.00;;;6.53;;
61407;SDS011;47274;43.054;25.146;2023-01-28T13:06:18;12.33;;;6.47;;
61407;SDS011;47274;43.054;25.146;2023-01-28T13:08:49;15.03;;;7.30;;
61407;SDS011;47274;43.054;25.146;2023-01-28T13:11:23;14.23;;;6.97;;
61407;SDS011;47274;43.054;25.146;2023-01-28T13:13:54;15.07;;;7.33;;
61407;SDS011;47274;43.054;25.146;2023-01-28T13:16:27;13.70;;;6.53;;
61407;SDS011;47274;43.054;25.146;2023-01-28T13:19:03;11.43;;;6.10;;
61407;SDS011;47274;43.054;25.146;2023-01-28T13:21:48;26.33;;;15.10;;
61407;SDS011;47274;43.054;25.146;2023-01-28T13:26:41;17.37;;;8.10;;
61407;SDS011;47274;43.054;25.146;2023-01-28T13:31:39;19.83;;;9.23;;
61407;SDS011;47274;43.054;25.146;2023-01-28T13:34:08;20.23;;;9.67;;
61407;SDS011;47274;43.054;25.146;2023-01-28T13:37:18;16.90;;;8.20;;
61407;SDS011;47274;43.054;25.146;2023-01-28T13:39:52;19.43;;;9.77;;
61407;SDS011;47274;43.054;25.146;2023-01-28T13:42:28;16.90;;;8.30;;
61407;SDS011;47274;43.054;25.146;2023-01-28T13:44:55;15.43;;;7.37;;
61407;SDS011;47274;43.054;25.146;2023-01-28T13:48:00;13.53;;;6.90;;
61407;SDS011;47274;43.054;25.146;2023-01-28T13:50:41;12.97;;;6.53;;
61407;SDS011;47274;43.054;25.146;2023-01-28T13:53:30;11.73;;;6.00;;
61407;SDS011;47274;43.054;25.146;2023-01-28T13:56:05;11.83;;;6.33;;
61407;SDS011;47274;43.054;25.146;2023-01-28T13:58:48;12.97;;;6.30;;
61407;SDS011;47274;43.054;25.146;2023-01-28T14:07:12;11.20;;;6.03;;
61407;SDS011;47274;43.054;25.146;2023-01-28T14:16:14;13.87;;;6.80;;
61407;SDS011;47274;43.054;25.146;2023-01-28T14:18:40;19.07;;;9.63;;
61407;SDS011;47274;43.054;25.146;2023-01-28T14:21:14;14.57;;;7.77;;
61407;SDS011;47274;43.054;25.146;2023-01-28T14:23:47;13.00;;;7.07;;
61407;SDS011;47274;43.054;25.146;2023-01-28T14:26:27;18.85;;;10.40;;
61407;SDS011;47274;43.054;25.146;2023-01-28T14:31:44;18.77;;;9.47;;
61407;SDS011;47274;43.054;25.146;2023-01-28T14:34:30;16.77;;;8.70;;
61407;SDS011;47274;43.054;25.146;2023-01-28T14:37:03;17.40;;;9.10;;
61407;SDS011;47274;43.054;25.146;2023-01-28T14:39:44;17.87;;;9.53;;
61407;SDS011;47274;43.054;25.146;2023-01-28T14:42:31;22.80;;;13.20;;
61407;SDS011;47274;43.054;25.146;2023-01-28T14:56:48;21.20;;;11.33;;
61407;SDS011;47274;43.054;25.146;2023-01-28T14:59:32;21.73;;;11.50;;
61407;SDS011;47274;43.054;25.146;2023-01-28T15:02:20;24.43;;;15.03;;
61407;SDS011;47274;43.054;25.146;2023-01-28T15:04:49;19.17;;;9.93;;
61407;SDS011;47274;43.054;25.146;2023-01-28T15:07:23;22.07;;;12.10;;
61407;SDS011;47274;43.054;25.146;2023-01-28T15:10:00;31.37;;;18.50;;
61407;SDS011;47274;43.054;25.146;2023-01-28T15:12:27;32.73;;;19.10;;
61407;SDS011;47274;43.054;25.146;2023-01-28T15:15:06;36.03;;;21.57;;
61407;SDS011;47274;43.054;25.146;2023-01-28T15:17:36;27.40;;;17.57;;
61407;SDS011;47274;43.054;25.146;2023-01-28T15:20:02;23.77;;;13.87;;
61407;SDS011;47274;43.054;25.146;2023-01-28T15:22:32;28.20;;;17.20;;
61407;SDS011;47274;43.054;25.146;2023-01-28T15:25:00;65.97;;;37.30;;
61407;SDS011;47274;43.054;25.146;2023-01-28T15:27:27;53.07;;;33.97;;
61407;SDS011;47274;43.054;25.146;2023-01-28T15:29:58;52.87;;;37.13;;
61407;SDS011;47274;43.054;25.146;2023-01-28T15:32:25;38.43;;;25.13;;
61407;SDS011;47274;43.054;25.146;2023-01-28T15:34:53;35.83;;;22.57;;
61407;SDS011;47274;43.054;25.146;2023-01-28T15:37:20;36.87;;;25.90;;
61407;SDS011;47274;43.054;25.146;2023-01-28T15:39:46;34.60;;;22.37;;
61407;SDS011;47274;43.054;25.146;2023-01-28T15:42:24;33.13;;;21.03;;
61407;SDS011;47274;43.054;25.146;2023-01-28T15:44:53;28.07;;;18.43;;
61407;SDS011;47274;43.054;25.146;2023-01-28T15:50:04;29.37;;;19.63;;
61407;SDS011;47274;43.054;25.146;2023-01-28T15:52:35;31.70;;;21.50;;
61407;SDS011;47274;43.054;25.146;2023-01-28T15:55:06;27.13;;;17.50;;
61407;SDS011;47274;43.054;25.146;2023-01-28T15:57:54;27.63;;;17.90;;
61407;SDS011;47274;43.054;25.146;2023-01-28T16:00:20;32.13;;;22.43;;
61407;SDS011;47274;43.054;25.146;2023-01-28T16:02:49;34.10;;;24.87;;
61407;SDS011;47274;43.054;25.146;2023-01-28T16:05:33;30.27;;;21.27;;
61407;SDS011;47274;43.054;25.146;2023-01-28T16:08:09;32.08;;;22.08;;
61407;SDS011;47274;43.054;25.146;2023-01-28T16:10:53;33.07;;;21.67;;
61407;SDS011;47274;43.054;25.146;2023-01-28T16:13:24;26.90;;;17.43;;
61407;SDS011;47274;43.054;25.146;2023-01-28T16:15:53;26.50;;;17.25;;
61407;SDS011;47274;43.054;25.146;2023-01-28T16:20:57;34.10;;;22.93;;
61407;SDS011;47274;43.054;25.146;2023-01-28T16:23:32;32.43;;;22.10;;
61407;SDS011;47274;43.054;25.146;2023-01-28T16:26:04;32.10;;;21.97;;
61407;SDS011;47274;43.054;25.146;2023-01-28T16:28:51;45.15;;;35.28;;
61407;SDS011;47274;43.054;25.146;2023-01-28T16:31:17;33.63;;;23.10;;
61407;SDS011;47274;43.054;25.146;2023-01-28T16:33:45;28.53;;;19.37;;
61407;SDS011;47274;43.054;25.146;2023-01-28T16:36:15;30.00;;;20.60;;
61407;SDS011;47274;43.054;25.146;2023-01-28T16:38:43;28.97;;;19.07;;
61407;SDS011;47274;43.054;25.146;2023-01-28T16:41:23;30.83;;;21.93;;
61407;SDS011;47274;43.054;25.146;2023-01-28T16:43:52;27.50;;;17.75;;
61407;SDS011;47274;43.054;25.146;2023-01-28T16:46:19;28.23;;;17.43;;
61407;SDS011;47274;43.054;25.146;2023-01-28T16:48:47;25.40;;;16.47;;
61407;SDS011;47274;43.054;25.146;2023-01-28T16:51:16;26.73;;;17.10;;
61407;SDS011;47274;43.054;25.146;2023-01-28T16:53:45;22.73;;;14.32;;
61407;SDS011;47274;43.054;25.146;2023-01-28T16:56:26;28.90;;;19.83;;
61407;SDS011;47274;43.054;25.146;2023-01-28T16:58:53;35.77;;;27.50;;
61407;SDS011;47274;43.054;25.146;2023-01-28T17:01:21;25.60;;;16.83;;
61407;SDS011;47274;43.054;25.146;2023-01-28T17:03:48;27.07;;;18.03;;
61407;SDS011;47274;43.054;25.146;2023-01-28T17:06:16;32.60;;;24.07;;
61407;SDS011;47274;43.054;25.146;2023-01-28T17:08:45;26.03;;;17.30;;
61407;SDS011;47274;43.054;25.146;2023-01-28T17:11:12;26.67;;;17.33;;
61407;SDS011;47274;43.054;25.146;2023-01-28T17:13:38;26.27;;;19.13;;
61407;SDS011;47274;43.054;25.146;2023-01-28T17:16:07;24.27;;;15.67;;
61407;SDS011;47274;43.054;25.146;2023-01-28T17:18:35;24.87;;;15.67;;